Time,TemperatureF,DewpointF,PressureIn,WindDirection,WindDirectionDegrees,WindSpeedMPH,WindSpeedGustMPH,Humidity,HourlyPrecipIn,Conditions,Clouds,dailyrainin,SoftwareType,DateUTC
2013-05-11 00:09:00,62.4,61.8,29.87,NW,315,2.2,-999.0,98,-99.99,,,0.00,Acu-Link.com,2013-05-11 04:09:00,
2013-05-11 00:24:00,62.4,61.8,29.87,SSW,202,1.1,-999.0,98,-99.99,,,0.00,Acu-Link.com,2013-05-11 04:24:00,
2013-05-11 00:39:00,62.4,61.8,29.88,NW,315,2.2,-999.0,98,-99.99,,,0.00,Acu-Link.com,2013-05-11 04:39:00,
2013-05-11 00:55:00,62.4,61.8,29.87,NNW,337,2.7,-999.0,98,-99.99,,,0.00,Acu-Link.com,2013-05-11 04:55:00,
2013-05-11 01:10:00,62.6,62.0,29.87,ESE,112,2.2,-999.0,98,-99.99,,,0.00,Acu-Link.com,2013-05-11 05:10:00,
2013-05-11 01:25:00,62.6,62.0,29.86,West,270,2.7,-999.0,98,-99.99,,,0.00,Acu-Link.com,2013-05-11 05:25:00,
2013-05-11 01:40:00,62.4,61.8,29.86,NW,315,2.2,-999.0,98,-99.99,,,0.00,Acu-Link.com,2013-05-11 05:40:00,
2013-05-11 01:56:00,62.1,61.5,29.85,SW,225,2.2,-999.0,98,-99.99,,,0.00,Acu-Link.com,2013-05-11 05:56:00,
2013-05-11 02:11:00,61.7,61.1,29.84,NE,45,2.2,-999.0,98,-99.99,,,0.00,Acu-Link.com,2013-05-11 06:11:00,
2013-05-11 02:26:00,61.3,60.7,29.85,ENE,67,0.0,-999.0,98,-99.99,,,0.00,Acu-Link.com,2013-05-11 06:26:00,
2013-05-11 02:42:00,61.0,60.4,29.83,WNW,292,3.7,-999.0,98,-99.99,,,0.00,Acu-Link.com,2013-05-11 06:42:00,
2013-05-11 02:57:00,60.4,59.8,29.83,WNW,292,3.2,-999.0,98,-99.99,,,0.00,Acu-Link.com,2013-05-11 06:57:00,
2013-05-11 03:12:00,60.1,59.5,29.83,North,0,6.8,-999.0,98,-99.99,,,0.00,Acu-Link.com,2013-05-11 07:12:00,
2013-05-11 03:27:00,59.9,59.3,29.81,WSW,247,2.2,-999.0,98,-99.99,,,0.00,Acu-Link.com,2013-05-11 07:27:00,
2013-05-11 03:43:00,59.2,58.6,29.83,South,180,1.1,-999.0,98,-99.99,,,0.00,Acu-Link.com,2013-05-11 07:43:00,
2013-05-11 03:58:00,58.8,58.2,29.81,NW,315,2.2,-999.0,98,-99.99,,,0.00,Acu-Link.com,2013-05-11 07:58:00,
2013-05-11 04:14:00,58.5,57.9,29.81,SE,135,3.2,-999.0,98,-99.99,,,0.00,Acu-Link.com,2013-05-11 08:14:00,
2013-05-11 04:29:00,58.5,57.9,29.82,WNW,292,2.2,-999.0,98,-99.99,,,0.00,Acu-Link.com,2013-05-11 08:29:00,
2013-05-11 04:44:00,57.4,56.8,29.83,West,270,0.0,-999.0,98,-99.99,,,0.00,Acu-Link.com,2013-05-11 08:44:00,
2013-05-11 04:59:00,55.8,55.2,29.82,WSW,247,0.0,-999.0,98,-99.99,,,0.00,Acu-Link.com,2013-05-11 08:59:00,
2013-05-11 05:14:00,55.0,54.4,29.80,WNW,292,0.0,-999.0,98,-99.99,,,0.00,Acu-Link.com,2013-05-11 09:14:00,
2013-05-11 05:29:00,54.5,53.9,29.82,WSW,247,0.0,-999.0,98,-99.99,,,0.00,Acu-Link.com,2013-05-11 09:29:00,
2013-05-11 05:44:00,54.3,53.7,29.82,West,270,0.0,-999.0,98,-99.99,,,0.00,Acu-Link.com,2013-05-11 09:44:00,
2013-05-11 05:59:00,54.5,53.9,29.81,WNW,292,3.2,-999.0,98,-99.99,,,0.00,Acu-Link.com,2013-05-11 09:59:00,
2013-05-11 06:15:00,54.7,54.1,29.82,NW,315,0.0,-999.0,98,-99.99,,,0.00,Acu-Link.com,2013-05-11 10:15:00,
2013-05-11 06:30:00,54.5,53.9,29.81,NNW,337,0.0,-999.0,98,-99.99,,,0.00,Acu-Link.com,2013-05-11 10:30:00,
2013-05-11 06:45:00,54.0,53.4,29.81,West,270,0.0,-999.0,98,-99.99,,,0.00,Acu-Link.com,2013-05-11 10:45:00,
2013-05-11 07:01:00,54.7,54.1,29.82,NNE,22,0.0,-999.0,98,-99.99,,,0.00,Acu-Link.com,2013-05-11 11:01:00,
2013-05-11 07:16:00,56.3,55.7,29.81,NW,315,0.0,-999.0,98,-99.99,,,0.00,Acu-Link.com,2013-05-11 11:16:00,
2013-05-11 07:31:00,57.6,57.0,29.81,West,270,0.0,-999.0,98,-99.99,,,0.00,Acu-Link.com,2013-05-11 11:31:00,
2013-05-11 07:47:00,61.0,60.4,29.82,WSW,247,0.0,-999.0,98,-99.99,,,0.00,Acu-Link.com,2013-05-11 11:47:00,
2013-05-11 08:02:00,62.2,61.6,29.82,WNW,292,0.0,-999.0,98,-99.99,,,0.00,Acu-Link.com,2013-05-11 12:02:00,
2013-05-11 08:17:00,65.3,64.7,29.83,NW,315,2.7,-999.0,98,-99.99,,,0.00,Acu-Link.com,2013-05-11 12:17:00,
2013-05-11 08:33:00,69.4,68.8,29.82,NNE,22,1.1,-999.0,98,-99.99,,,0.00,Acu-Link.com,2013-05-11 12:33:00,
2013-05-11 08:48:00,72.7,69.6,29.83,NNE,22,1.7,-999.0,90,-99.99,,,0.00,Acu-Link.com,2013-05-11 12:48:00,
2013-05-11 09:03:00,72.5,69.4,29.82,NE,45,0.0,-999.0,90,-99.99,,,0.00,Acu-Link.com,2013-05-11 13:03:00,
2013-05-11 09:18:00,73.6,71.1,29.82,WNW,292,1.1,-999.0,92,-99.99,,,0.00,Acu-Link.com,2013-05-11 13:18:00,
2013-05-11 09:48:00,72.9,72.3,29.83,NW,315,2.2,-999.0,98,-99.99,,,0.00,Acu-Link.com,2013-05-11 13:48:00,
2013-05-11 10:04:00,73.0,72.4,29.84,West,270,1.7,-999.0,98,-99.99,,,0.00,Acu-Link.com,2013-05-11 14:04:00,
2013-05-11 10:19:00,73.0,72.1,29.83,NE,45,1.7,-999.0,97,-99.99,,,0.00,Acu-Link.com,2013-05-11 14:19:00,
2013-05-11 10:34:00,71.4,70.8,29.83,South,180,2.7,-999.0,98,-99.99,,,0.00,Acu-Link.com,2013-05-11 14:34:00,
2013-05-11 10:49:00,73.9,69.4,29.83,WNW,292,1.1,-999.0,86,-99.99,,,0.00,Acu-Link.com,2013-05-11 14:49:00,
2013-05-11 11:05:00,75.0,70.5,29.81,WNW,292,2.7,-999.0,86,-99.99,,,0.00,Acu-Link.com,2013-05-11 15:05:00,
2013-05-11 11:20:00,75.6,68.6,29.81,West,270,1.1,-999.0,79,-99.99,,,0.00,Acu-Link.com,2013-05-11 15:20:00,
2013-05-11 11:35:00,76.5,68.7,29.81,ENE,67,0.0,-999.0,77,-99.99,,,0.00,Acu-Link.com,2013-05-11 15:35:00,
2013-05-11 11:51:00,74.7,67.0,29.81,SSE,157,2.2,-999.0,77,-99.99,,,0.00,Acu-Link.com,2013-05-11 15:51:00,
2013-05-11 12:06:00,76.1,69.1,29.81,North,0,1.7,-999.0,79,-99.99,,,0.00,Acu-Link.com,2013-05-11 16:06:00,
2013-05-11 12:21:00,77.4,68.0,29.80,North,0,6.3,-999.0,73,-99.99,,,0.00,Acu-Link.com,2013-05-11 16:21:00,
2013-05-11 12:37:00,77.4,68.4,29.80,SSE,157,3.2,-999.0,74,-99.99,,,0.00,Acu-Link.com,2013-05-11 16:37:00,
2013-05-11 12:52:00,77.7,66.7,29.80,NNE,22,4.2,-999.0,69,-99.99,,,0.00,Acu-Link.com,2013-05-11 16:52:00,
2013-05-11 13:07:00,77.4,68.4,29.79,NNW,337,2.2,-999.0,74,-99.99,,,0.00,Acu-Link.com,2013-05-11 17:07:00,
2013-05-11 13:23:00,77.9,67.7,29.78,WNW,292,2.7,-999.0,71,-99.99,,,0.00,Acu-Link.com,2013-05-11 17:23:00,
2013-05-11 13:38:00,79.9,69.6,29.78,NNW,337,2.7,-999.0,71,-99.99,,,0.00,Acu-Link.com,2013-05-11 17:38:00,
2013-05-11 13:53:00,81.0,71.5,29.78,NNW,337,4.2,-999.0,73,-99.99,,,0.00,Acu-Link.com,2013-05-11 17:53:00,
2013-05-11 14:08:00,78.8,70.6,29.79,NNE,22,0.0,-999.0,76,-99.99,,,0.00,Acu-Link.com,2013-05-11 18:08:00,
2013-05-11 14:24:00,78.8,70.6,29.78,East,90,3.7,-999.0,76,-99.99,,,0.00,Acu-Link.com,2013-05-11 18:24:00,
2013-05-11 14:40:00,78.1,69.1,29.77,South,180,3.2,-999.0,74,-99.99,,,0.00,Acu-Link.com,2013-05-11 18:40:00,
2013-05-11 14:55:00,80.1,69.0,29.76,East,90,2.7,-999.0,69,-99.99,,,0.00,Acu-Link.com,2013-05-11 18:55:00,
2013-05-11 15:10:00,77.9,69.7,29.75,SSE,157,1.1,-999.0,76,-99.99,,,0.00,Acu-Link.com,2013-05-11 19:10:00,
2013-05-11 15:25:00,77.7,69.5,29.75,East,90,2.7,-999.0,76,-99.99,,,0.00,Acu-Link.com,2013-05-11 19:25:00,
2013-05-11 15:41:00,74.7,74.1,29.74,ESE,112,3.7,-999.0,98,-99.99,,,0.00,Acu-Link.com,2013-05-11 19:41:00,
2013-05-11 15:56:00,71.8,71.2,29.74,South,180,2.7,-999.0,98,-99.99,,,0.00,Acu-Link.com,2013-05-11 19:56:00,
2013-05-11 16:11:00,70.9,70.3,29.74,ESE,112,2.7,-999.0,98,-99.99,,,0.00,Acu-Link.com,2013-05-11 20:11:00,
2013-05-11 16:26:00,77.0,76.4,29.75,South,180,3.2,-999.0,98,-99.99,,,0.00,Acu-Link.com,2013-05-11 20:26:00,
2013-05-11 16:42:00,77.4,71.5,29.73,SSW,202,2.7,-999.0,82,-99.99,,,0.00,Acu-Link.com,2013-05-11 20:42:00,
2013-05-11 16:57:00,79.5,69.7,29.73,East,90,2.7,-999.0,72,-99.99,,,0.00,Acu-Link.com,2013-05-11 20:57:00,
2013-05-11 17:12:00,79.5,68.0,29.71,SE,135,2.2,-999.0,68,-99.99,,,0.00,Acu-Link.com,2013-05-11 21:12:00,
2013-05-11 17:28:00,79.2,67.3,29.71,SSE,157,5.3,-999.0,67,-99.99,,,0.00,Acu-Link.com,2013-05-11 21:28:00,
2013-05-11 17:43:00,77.2,67.9,29.73,NE,45,2.2,-999.0,73,-99.99,,,0.00,Acu-Link.com,2013-05-11 21:43:00,
2013-05-11 17:58:00,73.8,67.6,29.72,NNW,337,3.7,-999.0,81,-99.99,,,0.00,Acu-Link.com,2013-05-11 21:58:00,
2013-05-11 18:14:00,66.6,66.0,29.73,NNW,337,5.8,-999.0,98,-99.99,,,0.00,Acu-Link.com,2013-05-11 22:14:00,
2013-05-11 18:29:00,61.7,61.1,29.76,NNW,337,2.7,-999.0,98,-99.99,,,0.15,Acu-Link.com,2013-05-11 22:29:00,
2013-05-11 18:44:00,61.5,60.9,29.76,WNW,292,0.0,-999.0,98,-99.99,,,0.36,Acu-Link.com,2013-05-11 22:44:00,
2013-05-11 18:59:00,60.6,60.0,29.76,WNW,292,1.1,-999.0,98,-99.99,,,0.36,Acu-Link.com,2013-05-11 22:59:00,
2013-05-11 19:15:00,60.8,60.2,29.77,NW,315,0.0,-999.0,98,-99.99,,,0.36,Acu-Link.com,2013-05-11 23:15:00,
2013-05-11 19:30:00,60.4,59.8,29.76,NW,315,0.0,-999.0,98,-99.99,,,0.36,Acu-Link.com,2013-05-11 23:30:00,
2013-05-11 19:45:00,59.2,58.6,29.76,West,270,2.2,-999.0,98,-99.99,,,0.36,Acu-Link.com,2013-05-11 23:45:00,
2013-05-11 20:00:00,58.8,58.2,29.77,WNW,292,0.0,-999.0,98,-99.99,,,0.36,Acu-Link.com,2013-05-12 00:00:00,
2013-05-11 20:16:00,58.5,57.9,29.77,West,270,0.0,-999.0,98,-99.99,,,0.36,Acu-Link.com,2013-05-12 00:16:00,
2013-05-11 20:31:00,57.7,57.1,29.78,WSW,247,0.0,-999.0,98,-99.99,,,0.37,Acu-Link.com,2013-05-12 00:31:00,
2013-05-11 20:46:00,57.0,56.4,29.77,WSW,247,0.0,-999.0,98,-99.99,,,0.37,Acu-Link.com,2013-05-12 00:46:00,
2013-05-11 21:02:00,56.8,56.2,29.77,West,270,2.2,-999.0,98,-99.99,,,0.37,Acu-Link.com,2013-05-12 01:02:00,
2013-05-11 21:17:00,56.8,56.2,29.76,WNW,292,2.2,-999.0,98,-99.99,,,0.37,Acu-Link.com,2013-05-12 01:17:00,
2013-05-11 21:32:00,56.7,56.1,29.77,WNW,292,2.2,-999.0,98,-99.99,,,0.37,Acu-Link.com,2013-05-12 01:32:00,
2013-05-11 21:48:00,56.8,56.2,29.76,WNW,292,0.0,-999.0,98,-99.99,,,0.37,Acu-Link.com,2013-05-12 01:48:00,
2013-05-11 22:03:00,56.7,56.1,29.77,West,270,0.0,-999.0,98,-99.99,,,0.37,Acu-Link.com,2013-05-12 02:03:00,
2013-05-11 22:18:00,56.5,55.9,29.78,West,270,0.0,-999.0,98,-99.99,,,0.37,Acu-Link.com,2013-05-12 02:18:00,
2013-05-11 22:34:00,56.3,55.7,29.79,WNW,292,0.0,-999.0,98,-99.99,,,0.37,Acu-Link.com,2013-05-12 02:34:00,
2013-05-11 22:49:00,56.3,55.7,29.79,West,270,0.0,-999.0,98,-99.99,,,0.37,Acu-Link.com,2013-05-12 02:49:00,
2013-05-11 23:04:00,56.5,55.9,29.80,North,0,2.7,-999.0,98,-99.99,,,0.37,Acu-Link.com,2013-05-12 03:04:00,
2013-05-11 23:19:00,56.8,56.2,29.81,NE,45,2.7,-999.0,98,-99.99,,,0.37,Acu-Link.com,2013-05-12 03:19:00,
2013-05-11 23:34:00,56.3,55.7,29.81,NNW,337,5.3,-999.0,98,-99.99,,,0.37,Acu-Link.com,2013-05-12 03:34:00,
2013-05-11 23:50:00,55.8,55.2,29.79,WNW,292,4.2,-999.0,98,-99.99,,,0.37,Acu-Link.com,2013-05-12 03:50:00,